createdAt,value
2023-07-25T00:03:59.223Z,95915.86
2023-07-25T00:12:22.763Z,95903.91
2023-07-25T00:20:45.810Z,95892.95
2023-07-25T00:29:08.922Z,95881.17
2023-07-25T00:37:32.211Z,95870.72
2023-07-25T00:45:56.095Z,95857.55
2023-07-25T00:54:23.478Z,95848.86
2023-07-25T01:02:47.108Z,95850.78
2023-07-25T01:11:10.607Z,95846.20
2023-07-25T01:19:35.533Z,95841.03
2023-07-25T01:27:58.636Z,95831.73
2023-07-25T01:36:21.961Z,95820.40
2023-07-25T01:44:45.600Z,95798.81
2023-07-25T01:53:08.637Z,95775.02
2023-07-25T02:01:32.393Z,95748.48
2023-07-25T02:09:56.456Z,95713.67
2023-07-25T02:18:19.653Z,95670.00
2023-07-25T02:26:42.858Z,95617.73
2023-07-25T02:35:06.543Z,95569.30
2023-07-25T02:43:29.860Z,95516.92
2023-07-25T02:51:52.983Z,95470.27
2023-07-25T03:00:16.256Z,95397.89
2023-07-25T03:08:39.312Z,95346.05
2023-07-25T03:17:02.410Z,95322.09
2023-07-25T03:25:25.564Z,95312.91
2023-07-25T03:33:48.603Z,95341.09
2023-07-25T03:42:11.790Z,95425.90
2023-07-25T03:50:34.841Z,95509.34
2023-07-25T03:58:59.379Z,95636.50
2023-07-25T04:07:22.410Z,95851.10
2023-07-25T04:15:45.403Z,96104.36
2023-07-25T04:24:08.487Z,96357.48
2023-07-25T04:32:31.703Z,96557.77
2023-07-25T04:40:54.777Z,96557.17
2023-07-25T04:49:18.386Z,96435.42
2023-07-25T04:57:42.585Z,96468.27
2023-07-25T05:06:05.712Z,96625.80
2023-07-25T05:14:28.726Z,96742.25
2023-07-25T05:22:51.760Z,96972.89
2023-07-25T05:31:14.846Z,97266.29
2023-07-25T05:39:37.935Z,97444.58
2023-07-25T05:48:02.712Z,97555.87
2023-07-25T05:56:26.601Z,97447.11
2023-07-25T06:04:50.423Z,97389.34
2023-07-25T06:13:14.431Z,97498.35
2023-07-25T06:21:38.125Z,97558.27
2023-07-25T06:30:06.127Z,97872.20
2023-07-25T06:38:30.104Z,97884.01
2023-07-25T06:46:53.458Z,98011.61
2023-07-25T06:55:23.160Z,98320.92
2023-07-25T07:03:46.162Z,98601.95
2023-07-25T07:12:09.827Z,98828.76
2023-07-25T07:20:32.879Z,98964.81
2023-07-25T07:28:56.147Z,98984.48
2023-07-25T07:37:19.407Z,99086.48
2023-07-25T07:45:42.406Z,99283.92
2023-07-25T07:54:05.892Z,99465.56
2023-07-25T08:02:29.052Z,99553.19
2023-07-25T08:10:52.120Z,99742.02
2023-07-25T08:19:15.133Z,99772.23
2023-07-25T08:27:38.480Z,99826.77
2023-07-25T08:36:02.951Z,99847.13
2023-07-25T08:44:28.021Z,99854.92
2023-07-25T08:52:54.323Z,99851.08
2023-07-25T09:01:19.204Z,99919.20
2023-07-25T09:09:42.710Z,99936.33
2023-07-25T09:18:05.798Z,99922.29
2023-07-25T09:26:31.606Z,99932.35
2023-07-25T09:34:58.028Z,99752.38
2023-07-25T09:43:23.997Z,99873.92
2023-07-25T09:52:02.061Z,100073.91
2023-07-25T10:00:25.523Z,100166.96
2023-07-25T10:08:49.746Z,100093.27
2023-07-25T10:17:12.972Z,100214.20
2023-07-25T10:25:36.600Z,100179.13
2023-07-25T10:34:01.494Z,100143.58
2023-07-25T10:42:51.713Z,100071.91
2023-07-25T10:51:24.869Z,100187.39
2023-07-25T11:00:11.220Z,100203.79
2023-07-25T11:08:40.238Z,100077.95
2023-07-25T11:17:05.048Z,100044.45
2023-07-25T11:25:28.162Z,99823.15
2023-07-25T11:33:51.150Z,99844.71
2023-07-25T11:42:14.272Z,99866.46
2023-07-25T11:50:38.668Z,99967.23
2023-07-25T11:59:04.128Z,99959.21
2023-07-25T12:07:27.172Z,100114.96
2023-07-25T12:15:56.169Z,100152.75
2023-07-25T12:24:19.424Z,99915.84
2023-07-25T12:32:42.603Z,99680.58
2023-07-25T12:41:05.716Z,99590.23
2023-07-25T12:49:29.637Z,99667.58
2023-07-25T12:57:52.731Z,99761.96
2023-07-25T13:06:15.804Z,99825.70
2023-07-25T13:14:38.923Z,99746.75
2023-07-25T13:23:02.014Z,99672.85
2023-07-25T13:31:25.305Z,99612.54
2023-07-25T13:39:49.026Z,99605.85
2023-07-25T13:48:12.704Z,99691.05
2023-07-25T13:56:35.709Z,99804.60
2023-07-25T14:04:58.967Z,99715.88
2023-07-25T14:13:23.827Z,99524.64
2023-07-25T14:21:46.943Z,99424.46
2023-07-25T14:30:11.320Z,99435.58
2023-07-25T14:38:34.403Z,99495.61
2023-07-25T14:46:57.435Z,99425.91
2023-07-25T14:55:21.130Z,99272.02
2023-07-25T15:03:44.542Z,99094.80
2023-07-25T15:12:07.897Z,98902.34
2023-07-25T15:20:30.992Z,98689.55
2023-07-25T15:28:54.639Z,98509.50
2023-07-25T15:37:17.782Z,98369.42
2023-07-25T15:45:41.387Z,98252.48
2023-07-25T15:54:04.410Z,98134.85
2023-07-25T16:02:27.560Z,97993.84
2023-07-25T16:10:52.440Z,97793.66
2023-07-25T16:19:17.140Z,97499.77
2023-07-25T16:27:40.147Z,97174.63
2023-07-25T16:36:03.263Z,96838.52
2023-07-25T16:44:26.270Z,96613.12
2023-07-25T16:52:49.972Z,96429.73
2023-07-25T17:01:13.192Z,96249.88
2023-07-25T17:09:36.258Z,96133.28
2023-07-25T17:17:59.345Z,96036.50
2023-07-25T17:26:22.399Z,95985.77
2023-07-25T17:34:45.448Z,95917.90
2023-07-25T17:43:08.679Z,95833.64
2023-07-25T17:51:32.008Z,95771.27
2023-07-25T17:59:55.986Z,95730.14
2023-07-25T18:08:18.996Z,95697.41
2023-07-25T18:16:41.990Z,95652.65
2023-07-25T18:25:06.369Z,95598.36
2023-07-25T18:33:29.883Z,95564.38
2023-07-25T18:41:54.571Z,95552.82
2023-07-25T18:50:19.175Z,95530.16
2023-07-25T18:58:42.314Z,95514.32
2023-07-25T19:07:05.790Z,95500.20
2023-07-25T19:15:28.785Z,95495.94
2023-07-25T19:23:54.303Z,95499.20
2023-07-25T19:32:18.606Z,95501.65
2023-07-25T19:40:41.755Z,95491.36
2023-07-25T19:49:04.760Z,95470.42
2023-07-25T19:57:27.861Z,95457.06
2023-07-25T20:05:50.892Z,95426.89
2023-07-25T20:14:14.470Z,95395.51
2023-07-25T20:22:37.587Z,95344.75
2023-07-25T20:31:00.980Z,95285.63
2023-07-25T20:39:24.073Z,95233.67
2023-07-25T20:47:48.730Z,95221.97
2023-07-25T20:56:11.799Z,95227.23
2023-07-25T21:04:34.927Z,95217.02
2023-07-25T21:12:58.005Z,95211.59
2023-07-25T21:21:21.227Z,95211.91
2023-07-25T21:29:44.794Z,95209.82
2023-07-25T21:38:08.090Z,95204.61
2023-07-25T21:46:32.910Z,95183.70
2023-07-25T21:54:56.709Z,95161.92
2023-07-25T22:03:22.193Z,95159.22
2023-07-25T22:11:46.799Z,95143.10
2023-07-25T22:20:10.709Z,95114.73
2023-07-25T22:28:33.840Z,95069.05
2023-07-25T22:36:56.801Z,95020.00
2023-07-25T22:45:20.299Z,94984.54
2023-07-25T22:53:43.284Z,94954.50
2023-07-25T23:02:07.715Z,94924.12
2023-07-25T23:10:31.002Z,94926.11
2023-07-25T23:18:54.954Z,94915.71
2023-07-25T23:27:17.968Z,94888.73
2023-07-25T23:35:41.141Z,94845.91
2023-07-25T23:44:04.317Z,94796.47
2023-07-25T23:52:27.284Z,94731.16
